Time;durP1;ratioP1;P1;durP2;ratioP2;P2;SDS_P1;SDS_P2;PMS_P1;PMS_P2;Temp;Humidity;BMP_temperature;BMP_pressure;BME280_temperature;BME280_humidity;BME280_pressure;Samples;Min_cycle;Max_cycle;Signal;HPM_P1;HPM_P2
2023/04/02 00:00:43;;;;;;;33.40;15.20;;;;;;;13.86;71.24;97801.64;68308;1282;1016103;-62
2023/04/02 00:04:07;;;;;;;31.20;14.70;;;;;;;13.80;71.88;97804.36;68318;1282;1016420;-62
2023/04/02 00:07:14;;;;;;;30.70;13.70;;;;;;;13.95;71.50;97808.21;68318;1282;1015471;-62
2023/04/02 00:10:16;;;;;;;29.80;14.30;;;;;;;14.07;70.66;97809.06;68332;1282;1015738;-62
2023/04/02 00:13:18;;;;;;;27.80;13.40;;;;;;;14.19;70.23;97807.48;68314;1282;1015260;-62
2023/04/02 00:16:21;;;;;;;31.70;13.70;;;;;;;14.14;70.51;97809.11;68318;1282;1016130;-62
2023/04/02 00:19:23;;;;;;;31.10;13.70;;;;;;;14.11;70.90;97820.10;68324;1282;1016048;-63
2023/04/02 00:22:25;;;;;;;30.50;13.00;;;;;;;14.20;70.29;97826.52;68314;1282;1015340;-62
2023/04/02 00:25:28;;;;;;;29.20;12.20;;;;;;;14.20;69.50;97826.87;68324;1282;1015700;-62
2023/04/02 00:28:30;;;;;;;27.40;12.30;;;;;;;13.89;70.16;97838.48;68321;1282;1015668;-62
2023/04/02 00:31:33;;;;;;;;;;;;;;;13.71;71.02;97841.47;68328;1282;1016213;-62
2023/04/02 00:34:35;;;;;;;31.40;14.10;;;;;;;13.73;71.06;97844.27;68309;1282;1015780;-62
2023/04/02 00:37:40;;;;;;;29.90;14.00;;;;;;;13.80;71.01;97838.37;68318;1282;1015372;-62
2023/04/02 00:40:43;;;;;;;28.80;13.10;;;;;;;13.84;71.03;97844.03;68334;1282;1015404;-62
2023/04/02 00:43:46;;;;;;;29.80;14.00;;;;;;;13.80;71.33;97842.27;68316;1282;1015985;-62
2023/04/02 00:46:48;;;;;;;31.00;13.30;;;;;;;13.87;71.05;97844.61;68324;1282;1015668;-62
2023/04/02 00:49:51;;;;;;;30.60;13.40;;;;;;;13.95;70.62;97843.23;68327;1282;1016105;-62
2023/04/02 00:52:53;;;;;;;31.70;14.00;;;;;;;13.98;70.29;97844.85;68320;1282;1015573;-63
2023/04/02 00:55:55;;;;;;;28.10;13.70;;;;;;;14.03;70.01;97846.01;68349;1282;1015908;-62
2023/04/02 00:58:58;;;;;;;28.10;13.00;;;;;;;13.97;70.49;97845.86;68331;1282;1015874;-62
2023/04/02 01:02:01;;;;;;;30.70;14.20;;;;;;;13.89;70.37;97847.26;68313;1282;1016078;-62
2023/04/02 01:05:04;;;;;;;30.30;14.40;;;;;;;13.76;71.32;97846.52;68323;1282;1015630;-62
2023/04/02 01:08:06;;;;;;;30.10;13.50;;;;;;;13.74;71.49;97849.80;68316;1282;1016352;-62
2023/04/02 01:11:09;;;;;;;32.40;14.00;;;;;;;13.85;71.43;97847.28;68316;1282;1016972;-62
2023/04/02 01:14:11;;;;;;;28.10;12.50;;;;;;;13.91;70.97;97849.59;68311;1282;1015665;-62
2023/04/02 01:17:14;;;;;;;30.10;13.20;;;;;;;13.77;71.30;97850.60;68330;1282;1014788;-62
2023/04/02 01:20:17;;;;;;;30.30;14.40;;;;;;;13.88;70.80;97848.23;66119;1282;5367392;-62
2023/04/02 01:23:19;;;;;;;;;;;;;;;13.90;70.60;97850.03;68320;1282;1015785;-62
2023/04/02 01:26:22;;;;;;;29.30;13.90;;;;;;;13.86;71.08;97856.63;68317;1282;1015817;-62
2023/04/02 01:29:25;;;;;;;30.30;14.10;;;;;;;13.89;71.00;97861.54;68330;1282;1015266;-62
2023/04/02 01:32:27;;;;;;;30.80;14.10;;;;;;;13.87;70.91;97865.67;68316;1282;1015901;-62
2023/04/02 01:35:32;;;;;;;31.70;14.20;;;;;;;13.88;70.85;97867.36;68327;1282;1015710;-62
2023/04/02 01:38:35;;;;;;;30.20;13.50;;;;;;;13.92;70.73;97867.96;68318;1282;1015813;-62
2023/04/02 01:41:37;;;;;;;;;;;;;;;13.97;70.38;97871.52;68312;1282;1015336;-62
2023/04/02 01:44:40;;;;;;;29.50;13.30;;;;;;;14.07;70.16;97874.45;68327;1282;1015542;-62
2023/04/02 01:47:43;;;;;;;32.40;14.80;;;;;;;13.84;71.21;97880.88;68315;1282;1014483;-62
2023/04/02 01:50:45;;;;;;;34.40;16.00;;;;;;;13.87;70.41;97887.90;68330;1282;1016183;-62
2023/04/02 01:53:48;;;;;;;35.00;16.90;;;;;;;13.49;71.47;97884.36;68320;1282;1015656;-62
2023/04/02 01:56:50;;;;;;;34.90;16.80;;;;;;;13.29;72.48;97888.90;68311;1282;1015909;-62
2023/04/02 01:59:53;;;;;;;40.50;18.40;;;;;;;13.21;73.10;97887.30;68319;1282;1015628;-62
2023/04/02 02:02:55;;;;;;;35.20;17.60;;;;;;;13.19;72.68;97891.12;68320;1282;1015587;-62
2023/04/02 02:05:57;;;;;;;34.60;16.20;;;;;;;13.09;73.32;97884.40;68309;1282;1015959;-62
2023/04/02 02:09:00;;;;;;;35.70;16.70;;;;;;;13.15;73.04;97886.07;68311;1282;1015846;-63
2023/04/02 02:12:02;;;;;;;33.60;16.20;;;;;;;13.18;72.92;97887.54;68319;1282;1015784;-61
2023/04/02 02:15:05;;;;;;;35.70;16.70;;;;;;;13.18;72.78;97892.84;68317;1282;1015770;-62
2023/04/02 02:18:07;;;;;;;33.00;15.40;;;;;;;13.23;72.61;97891.49;68311;1282;1016048;-62
2023/04/02 02:21:10;;;;;;;36.10;17.00;;;;;;;13.17;72.78;97892.33;68323;1282;1015847;-62
2023/04/02 02:24:12;;;;;;;;;;;;;;;13.24;72.84;97892.49;68325;1282;1016126;-62
2023/04/02 02:27:15;;;;;;;32.80;14.90;;;;;;;13.30;72.26;97894.73;68319;1282;1015516;-62
2023/04/02 02:30:17;;;;;;;31.30;14.60;;;;;;;13.29;71.75;97895.72;68320;1282;1015326;-62
2023/04/02 02:33:20;;;;;;;29.20;13.40;;;;;;;13.18;72.05;97896.66;68315;1282;1016027;-62
2023/04/02 02:36:24;;;;;;;28.80;12.40;;;;;;;13.39;70.77;97901.90;68307;1282;1015508;-62
2023/04/02 02:39:26;;;;;;;27.60;11.80;;;;;;;13.37;70.73;97902.83;68318;1282;1016188;-62
2023/04/02 02:42:30;;;;;;;26.00;11.10;;;;;;;13.18;71.21;97906.00;68299;1282;1015815;-62
2023/04/02 02:45:32;;;;;;;25.80;9.60;;;;;;;13.19;70.79;97905.67;68320;1282;1015887;-62
2023/04/02 02:48:34;;;;;;;24.30;9.70;;;;;;;13.05;71.35;97909.20;68318;1282;1015808;-62
2023/04/02 02:51:37;;;;;;;22.20;8.70;;;;;;;12.73;72.78;97915.77;68302;1282;1015332;-63
2023/04/02 02:54:39;;;;;;;22.90;8.70;;;;;;;12.74;72.75;97921.43;68318;1282;1015771;-62
2023/04/02 02:57:42;;;;;;;22.30;8.90;;;;;;;12.66;72.95;97924.27;68314;1282;1015469;-62
2023/04/02 03:00:44;;;;;;;23.40;9.20;;;;;;;12.58;73.52;97930.14;68315;1282;1015978;-62
2023/04/02 03:03:47;;;;;;;24.30;9.10;;;;;;;12.61;73.37;97930.82;68304;1282;1016141;-62
2023/04/02 03:06:51;;;;;;;22.90;9.70;;;;;;;12.44;74.20;97932.86;68307;1282;1016200;-62
2023/04/02 03:09:53;;;;;;;22.30;9.10;;;;;;;12.34;74.99;97936.99;68313;1282;1015667;-62
2023/04/02 03:12:56;;;;;;;24.70;10.20;;;;;;;12.28;75.30;97941.37;68312;1282;1015219;-62
2023/04/02 03:15:58;;;;;;;24.30;10.00;;;;;;;12.26;75.41;97943.28;68305;1282;1015431;-62
2023/04/02 03:19:01;;;;;;;22.00;8.60;;;;;;;12.29;75.57;97940.23;68315;1282;1015368;-62
2023/04/02 03:22:03;;;;;;;24.20;9.70;;;;;;;12.11;76.34;97941.04;68317;1282;1015934;-62
2023/04/02 03:25:05;;;;;;;24.40;9.40;;;;;;;11.95;77.20;97941.05;68324;1282;1016108;-62
2023/04/02 03:28:08;;;;;;;21.90;8.50;;;;;;;11.95;77.22;97947.03;68314;1282;1015566;-62
2023/04/02 03:31:11;;;;;;;22.80;9.10;;;;;;;11.95;77.41;97953.13;68322;1282;1015183;-62
2023/04/02 03:34:13;;;;;;;23.70;8.70;;;;;;;11.90;78.16;97952.46;68312;1282;1015788;-62
2023/04/02 03:37:16;;;;;;;23.00;8.20;;;;;;;11.96;77.77;97953.59;68314;1282;1016138;-62
2023/04/02 03:40:18;;;;;;;22.10;7.30;;;;;;;11.91;76.99;97958.86;68319;1282;1015636;-63
2023/04/02 03:43:21;;;;;;;21.60;7.30;;;;;;;11.88;76.47;97958.92;68311;1282;1015478;-62
2023/04/02 03:46:24;;;;;;;20.70;7.30;;;;;;;11.91;76.39;97960.13;68328;1282;1015572;-62
2023/04/02 03:49:26;;;;;;;20.50;7.00;;;;;;;11.82;76.20;97961.67;68319;1282;1015944;-62
2023/04/02 03:52:28;;;;;;;22.30;8.20;;;;;;;11.69;76.25;97968.14;68308;1282;1015538;-62
2023/04/02 03:55:31;;;;;;;22.70;7.90;;;;;;;11.58;76.45;97974.46;68318;1282;1015446;-62
2023/04/02 03:58:33;;;;;;;21.60;7.60;;;;;;;11.61;76.29;97978.77;68313;1282;1015499;-62
2023/04/02 04:01:35;;;;;;;20.80;6.90;;;;;;;11.54;76.54;97977.89;68312;1282;1015966;-62
2023/04/02 04:04:38;;;;;;;22.10;8.20;;;;;;;11.42;76.68;97982.71;68302;1282;1016527;-62
2023/04/02 04:07:41;;;;;;;;;;;;;;;11.34;77.27;97980.55;68322;1282;1015284;-62
2023/04/02 04:10:43;;;;;;;21.80;7.50;;;;;;;11.30;77.50;97986.29;68321;1282;1016024;-63
2023/04/02 04:13:45;;;;;;;22.90;7.80;;;;;;;11.34;77.28;97985.75;68324;1282;1015280;-62
2023/04/02 04:16:48;;;;;;;26.20;8.10;;;;;;;11.28;77.46;97986.95;68317;1282;1015610;-63
2023/04/02 04:19:50;;;;;;;22.70;8.10;;;;;;;11.39;77.16;97991.84;68316;1282;1014813;-62
2023/04/02 04:22:54;;;;;;;;;;;;;;;11.44;76.77;98000.00;68332;1282;1015880;-62
2023/04/02 04:25:56;;;;;;;20.30;7.00;;;;;;;11.40;76.76;98005.07;68325;1282;1015553;-62
2023/04/02 04:29:04;;;;;;;20.80;7.50;;;;;;;11.36;77.16;98006.47;68314;1282;1015817;-62
2023/04/02 04:32:07;;;;;;;22.60;7.50;;;;;;;11.38;77.46;98011.52;68332;1282;1015915;-62
2023/04/02 04:35:10;;;;;;;20.70;7.50;;;;;;;11.49;76.45;98013.33;68322;1282;1015797;-62
2023/04/02 04:38:13;;;;;;;21.00;7.30;;;;;;;11.46;76.34;98020.73;68315;1282;1017241;-62
2023/04/02 04:41:15;;;;;;;21.10;8.00;;;;;;;11.50;76.48;98024.56;68322;1282;1015517;-62
2023/04/02 04:44:17;;;;;;;21.60;8.20;;;;;;;11.57;76.23;98028.41;68319;1282;1015431;-62
2023/04/02 04:47:20;;;;;;;23.30;8.80;;;;;;;11.54;76.13;98030.45;68316;1282;1015379;-63
2023/04/02 04:50:22;;;;;;;22.10;8.30;;;;;;;11.50;76.27;98033.42;68321;1282;1015693;-62
2023/04/02 04:53:25;;;;;;;22.30;8.90;;;;;;;11.50;76.01;98038.28;68331;1282;1014858;-62
2023/04/02 04:56:27;;;;;;;25.50;10.20;;;;;;;11.47;76.22;98038.30;68309;1282;1015872;-62
2023/04/02 04:59:29;;;;;;;24.80;10.20;;;;;;;11.55;76.00;98040.48;68304;1282;1015735;-63
2023/04/02 05:02:32;;;;;;;25.30;10.50;;;;;;;11.42;76.14;98041.50;68315;1282;1015488;-62
2023/04/02 05:05:34;;;;;;;24.50;10.60;;;;;;;11.29;76.86;98044.46;68327;1282;1015460;-62
2023/04/02 05:08:36;;;;;;;23.20;9.10;;;;;;;11.31;76.54;98052.34;68326;1282;1015193;-62
2023/04/02 05:11:40;;;;;;;22.30;8.70;;;;;;;11.32;76.42;98055.42;68320;1282;1015521;-62
2023/04/02 05:14:42;;;;;;;22.10;9.10;;;;;;;11.28;76.38;98057.98;68311;1282;1014871;-62
2023/04/02 05:17:45;;;;;;;20.60;8.30;;;;;;;11.32;76.20;98061.17;68322;1282;1016057;-62
2023/04/02 05:20:47;;;;;;;24.70;9.40;;;;;;;11.30;76.19;98062.67;68307;1282;1015534;-62
2023/04/02 05:23:50;;;;;;;21.80;8.00;;;;;;;11.43;75.82;98065.75;68311;1282;1015761;-62
2023/04/02 05:26:52;;;;;;;23.40;8.00;;;;;;;11.32;75.40;98074.80;68316;1282;1016210;-62
2023/04/02 05:29:54;;;;;;;21.00;6.80;;;;;;;11.30;75.55;98074.45;68313;1282;1015579;-62
2023/04/02 05:32:57;;;;;;;19.20;6.50;;;;;;;11.21;75.90;98074.80;68311;1282;1015355;-62
2023/04/02 05:35:59;;;;;;;18.20;5.90;;;;;;;11.15;76.50;98084.16;68318;1282;1015363;-62
2023/04/02 05:39:03;;;;;;;18.50;6.30;;;;;;;11.14;76.73;98087.38;68300;1282;1015984;-62
2023/04/02 05:42:05;;;;;;;17.10;5.60;;;;;;;11.19;76.59;98098.92;68317;1282;1015495;-62
2023/04/02 05:45:07;;;;;;;16.60;5.50;;;;;;;11.20;75.68;98101.98;68304;1282;1015517;-62
2023/04/02 05:48:10;;;;;;;16.90;5.40;;;;;;;11.07;76.32;98105.52;68315;1282;1015791;-62
2023/04/02 05:51:12;;;;;;;16.90;5.30;;;;;;;11.00;76.53;98109.74;68305;1282;1015537;-62
2023/04/02 05:54:15;;;;;;;15.80;5.20;;;;;;;11.03;76.64;98111.27;68325;1282;1015996;-62
2023/04/02 05:57:17;;;;;;;17.70;5.10;;;;;;;11.27;75.66;98112.33;68312;1282;1015696;-62
2023/04/02 06:00:20;;;;;;;18.90;5.20;;;;;;;11.31;74.59;98126.18;68324;1282;1015987;-63
2023/04/02 06:03:22;;;;;;;15.40;4.60;;;;;;;11.24;74.66;98131.04;68317;1282;1015947;-62
2023/04/02 06:06:25;;;;;;;14.10;4.40;;;;;;;11.24;74.25;98136.13;68300;1282;1015997;-62
2023/04/02 06:09:27;;;;;;;16.00;4.80;;;;;;;11.23;74.23;98133.92;68317;1282;1016091;-62
2023/04/02 06:12:30;;;;;;;15.90;4.70;;;;;;;11.30;74.01;98134.17;68308;1282;1015423;-62
2023/04/02 06:15:32;;;;;;;16.30;4.60;;;;;;;11.29;74.14;98140.27;68320;1282;1016165;-62
2023/04/02 06:18:35;;;;;;;13.90;4.10;;;;;;;11.25;74.32;98144.06;68312;1282;1015330;-62
2023/04/02 06:21:37;;;;;;;16.50;4.80;;;;;;;11.25;74.00;98147.79;68310;1282;1015977;-62
2023/04/02 06:24:40;;;;;;;14.00;4.50;;;;;;;11.20;74.01;98157.94;68312;1282;1015924;-62
2023/04/02 06:27:42;;;;;;;14.00;4.40;;;;;;;11.28;74.09;98158.61;68316;1282;1015964;-62
2023/04/02 06:30:44;;;;;;;13.00;4.30;;;;;;;11.35;74.01;98164.95;68305;1282;1015456;-62
2023/04/02 06:33:51;;;;;;;14.90;4.50;;;;;;;11.37;73.87;98169.80;68318;1259;1016034;-62
2023/04/02 06:36:53;;;;;;;14.10;4.20;;;;;;;11.47;73.26;98177.17;68318;1282;1015570;-62
2023/04/02 06:39:55;;;;;;;9.90;3.60;;;;;;;11.52;73.04;98176.59;68302;1282;1015364;-62
2023/04/02 06:42:58;;;;;;;13.60;4.20;;;;;;;11.52;72.90;98189.23;68306;1282;1015942;-62
2023/04/02 06:46:01;;;;;;;;;;;;;;;11.50;72.82;98191.67;68346;1282;1015910;-63
2023/04/02 06:49:03;;;;;;;9.40;3.20;;;;;;;11.40;72.92;98194.09;68305;1282;1015308;-62
2023/04/02 06:52:05;;;;;;;10.60;3.60;;;;;;;11.27;73.03;98204.72;68326;1282;1015401;-62
2023/04/02 06:55:08;;;;;;;10.80;3.50;;;;;;;11.17;73.77;98204.74;68311;1282;1016011;-62
2023/04/02 06:58:11;;;;;;;11.30;3.10;;;;;;;11.20;73.14;98213.09;68324;1282;1015827;-63
2023/04/02 07:01:13;;;;;;;9.20;3.00;;;;;;;11.20;73.35;98209.73;68319;1282;1015969;-62
2023/04/02 07:04:15;;;;;;;9.10;2.90;;;;;;;11.24;73.25;98211.39;68324;1282;1015330;-62
2023/04/02 07:07:18;;;;;;;10.50;3.10;;;;;;;11.37;72.45;98220.61;68301;1282;1015701;-62
2023/04/02 07:10:20;;;;;;;11.70;3.40;;;;;;;11.37;71.82;98232.68;68307;1282;1015864;-62
2023/04/02 07:13:23;;;;;;;10.50;2.60;;;;;;;11.35;72.48;98232.11;68315;1282;1015253;-63
2023/04/02 07:16:26;;;;;;;9.00;2.90;;;;;;;11.37;72.56;98237.60;68321;1282;1016047;-62
2023/04/02 07:19:28;;;;;;;11.60;3.20;;;;;;;11.60;71.91;98232.88;68314;1282;1016556;-62
2023/04/02 07:22:31;;;;;;;9.50;2.80;;;;;;;11.69;71.26;98235.77;68306;1282;1016101;-62
2023/04/02 07:25:33;;;;;;;;;;;;;;;11.71;71.32;98242.61;68315;1282;1014505;-62
2023/04/02 07:28:36;;;;;;;9.60;2.60;;;;;;;11.46;71.72;98249.55;68308;1282;1015463;-62
2023/04/02 07:31:39;;;;;;;8.70;2.90;;;;;;;11.34;71.11;98250.42;68312;1282;1015642;-62
2023/04/02 07:34:42;;;;;;;9.60;2.70;;;;;;;11.34;70.87;98258.94;68320;1282;1016108;-62
2023/04/02 07:37:44;;;;;;;8.60;3.00;;;;;;;11.53;70.27;98256.19;68307;1282;1015836;-62
2023/04/02 07:40:46;;;;;;;8.30;2.30;;;;;;;11.38;70.20;98266.91;68326;1282;1015922;-62
2023/04/02 07:43:49;;;;;;;8.00;2.70;;;;;;;11.37;70.26;98267.50;68307;1282;1016032;-62
2023/04/02 07:46:51;;;;;;;6.20;2.40;;;;;;;11.58;69.82;98274.70;68324;1282;1015963;-62
2023/04/02 07:49:54;;;;;;;7.50;2.60;;;;;;;11.67;69.24;98274.28;68318;1282;1015180;-62
2023/04/02 07:52:56;;;;;;;7.40;2.70;;;;;;;11.70;69.47;98278.08;68303;1282;1016158;-63
2023/04/02 07:55:59;;;;;;;6.40;2.40;;;;;;;11.65;68.77;98288.05;68322;1282;1015690;-62
2023/04/02 07:59:02;;;;;;;5.70;2.40;;;;;;;11.63;68.01;98287.68;68307;1282;1015769;-62
2023/04/02 08:02:04;;;;;;;4.80;2.00;;;;;;;11.88;68.74;98282.48;68318;1282;1015395;-63
2023/04/02 08:05:07;;;;;;;8.30;2.60;;;;;;;11.99;67.16;98284.35;68303;1282;1015913;-62
2023/04/02 08:08:10;;;;;;;6.90;2.10;;;;;;;11.96;67.04;98293.45;68304;1282;1015712;-62
2023/04/02 08:11:13;;;;;;;7.20;2.30;;;;;;;11.99;67.99;98300.75;68315;1282;1016175;-62
2023/04/02 08:14:15;;;;;;;5.60;2.40;;;;;;;12.05;67.64;98304.77;68299;1282;1015677;-63
2023/04/02 08:17:18;;;;;;;5.10;2.10;;;;;;;12.12;67.81;98309.97;68298;1282;1016109;-62
2023/04/02 08:20:20;;;;;;;7.40;2.50;;;;;;;12.18;67.21;98312.89;68304;1282;1016208;-62
2023/04/02 08:23:23;;;;;;;6.80;2.50;;;;;;;12.25;67.54;98317.59;68308;1282;1015548;-62
2023/04/02 08:26:26;;;;;;;;;;;;;;;12.44;66.21;98315.80;68332;1282;1015880;-62
2023/04/02 08:29:31;;;;;;;6.90;2.40;;;;;;;12.60;65.49;98324.28;68318;1282;1015317;-62
2023/04/02 08:32:33;;;;;;;7.20;2.60;;;;;;;12.50;64.97;98332.02;68302;1282;1015207;-63
2023/04/02 08:35:35;;;;;;;7.80;2.70;;;;;;;12.37;65.37;98333.50;68309;1282;1015709;-62
2023/04/02 08:38:38;;;;;;;9.80;3.10;;;;;;;12.15;65.53;98342.75;68298;1282;1015991;-62
2023/04/02 08:41:40;;;;;;;6.00;2.70;;;;;;;11.88;66.43;98341.35;68306;1282;1016164;-62
2023/04/02 08:44:43;;;;;;;10.40;3.00;;;;;;;11.87;66.99;98348.05;68309;1282;1014701;-62
2023/04/02 08:47:46;;;;;;;8.20;3.00;;;;;;;11.65;66.51;98353.90;68303;1282;1016116;-62
2023/04/02 08:50:48;;;;;;;10.40;3.10;;;;;;;11.44;66.97;98357.04;68312;1282;1016032;-62
2023/04/02 08:53:50;;;;;;;7.40;2.60;;;;;;;11.41;66.98;98364.76;68303;1282;1016030;-62
2023/04/02 08:56:53;;;;;;;10.20;2.90;;;;;;;11.15;67.74;98372.17;68302;1282;1015398;-62
2023/04/02 08:59:55;;;;;;;5.70;2.20;;;;;;;11.03;69.00;98371.94;68314;1282;1015703;-62
2023/04/02 09:02:58;;;;;;;6.70;2.20;;;;;;;10.92;68.74;98374.27;68298;1282;1016144;-62
2023/04/02 09:06:00;;;;;;;3.80;1.90;;;;;;;10.70;68.23;98386.64;68309;1282;1016423;-62
2023/04/02 09:09:03;;;;;;;4.80;1.90;;;;;;;10.52;68.74;98385.61;68325;1282;1016029;-62
2023/04/02 09:12:06;;;;;;;4.90;1.70;;;;;;;10.47;69.39;98389.40;68310;1282;1016174;-63
2023/04/02 09:15:08;;;;;;;4.20;1.80;;;;;;;10.58;68.90;98392.38;68306;1282;1016344;-62
2023/04/02 09:18:11;;;;;;;4.40;1.30;;;;;;;10.75;67.65;98400.09;68299;1282;1015338;-62
2023/04/02 09:21:16;;;;;;;4.00;1.40;;;;;;;10.67;67.20;98406.73;68297;1282;1015423;-62
2023/04/02 09:24:18;;;;;;;4.30;1.10;;;;;;;10.70;67.13;98411.44;68303;1282;1016120;-62
2023/04/02 09:27:20;;;;;;;5.20;1.50;;;;;;;10.94;67.73;98409.83;68297;1282;1015890;-62
2023/04/02 09:30:23;;;;;;;4.60;1.90;;;;;;;10.99;67.65;98417.73;68307;1282;1015253;-62
2023/04/02 09:33:25;;;;;;;6.40;2.00;;;;;;;10.91;67.09;98426.66;68312;1282;1014398;-62
2023/04/02 09:36:28;;;;;;;5.60;1.80;;;;;;;10.79;67.01;98433.76;68302;1282;1015612;-62
2023/04/02 09:39:30;;;;;;;7.40;2.00;;;;;;;10.80;67.90;98435.63;68297;1282;1015426;-62
2023/04/02 09:42:33;;;;;;;;;;;;;;;10.87;68.35;98443.23;68316;1282;1015770;-62
2023/04/02 09:45:36;;;;;;;5.20;1.60;;;;;;;10.89;67.06;98458.13;68299;1282;1016073;-62
2023/04/02 09:48:39;;;;;;;6.90;2.10;;;;;;;10.86;67.29;98454.11;68310;1282;1015297;-62
2023/04/02 09:51:41;;;;;;;4.10;1.90;;;;;;;10.99;67.01;98455.31;68319;1282;1015760;-62
2023/04/02 09:54:43;;;;;;;6.50;1.80;;;;;;;11.09;66.78;98458.50;68322;1282;1015747;-62
2023/04/02 09:57:47;;;;;;;8.80;2.00;;;;;;;11.10;66.26;98462.98;68303;1282;1015831;-62
2023/04/02 10:00:50;;;;;;;;;;;;;;;11.12;66.81;98470.71;68309;1282;1015307;-62
2023/04/02 10:03:52;;;;;;;3.80;1.80;;;;;;;10.99;66.60;98470.93;68311;1282;1016224;-62
2023/04/02 10:06:56;;;;;;;4.40;2.10;;;;;;;11.01;66.42;98466.76;68301;1282;1016463;-62
2023/04/02 10:09:59;;;;;;;6.90;2.50;;;;;;;10.94;67.35;98468.77;68317;1282;1015547;-62
2023/04/02 10:13:01;;;;;;;7.70;2.70;;;;;;;10.84;67.32;98477.38;68319;1282;1016221;-62
2023/04/02 10:16:04;;;;;;;7.10;2.80;;;;;;;10.80;67.50;98477.61;68311;1282;1015911;-62
2023/04/02 10:19:06;;;;;;;6.30;2.50;;;;;;;10.65;67.42;98486.84;68307;1282;1015801;-62
2023/04/02 10:22:08;;;;;;;6.00;2.60;;;;;;;10.52;68.12;98489.39;68327;1283;1015613;-62
2023/04/02 10:25:11;;;;;;;7.20;2.60;;;;;;;10.69;68.32;98493.39;68295;1282;1016194;-62
2023/04/02 10:28:14;;;;;;;7.30;2.70;;;;;;;10.80;68.28;98494.57;68318;1282;1015822;-62
2023/04/02 10:31:17;;;;;;;8.60;3.10;;;;;;;10.71;68.08;98503.76;68325;1282;1015526;-62
2023/04/02 10:34:19;;;;;;;9.10;3.00;;;;;;;10.65;67.83;98507.27;68310;1282;1015078;-62
2023/04/02 10:37:21;;;;;;;8.20;2.70;;;;;;;10.52;68.21;98503.24;68305;1282;1016053;-62
2023/04/02 10:40:24;;;;;;;7.40;2.90;;;;;;;10.49;67.84;98506.56;68297;1260;1015432;-62
2023/04/02 10:43:26;;;;;;;8.30;2.70;;;;;;;10.56;67.99;98509.79;68313;1282;1015197;-62
2023/04/02 10:46:29;;;;;;;8.90;2.90;;;;;;;10.54;68.10;98513.43;68296;1282;1015811;-62
2023/04/02 10:49:31;;;;;;;8.40;2.60;;;;;;;10.55;67.82;98518.61;68295;1282;1015734;-62
2023/04/02 10:52:34;;;;;;;6.40;2.50;;;;;;;10.46;67.95;98524.63;68293;1282;1015469;-62
2023/04/02 10:55:39;;;;;;;5.30;2.20;;;;;;;10.36;67.87;98526.81;68306;1282;1014630;-62
2023/04/02 10:58:42;;;;;;;6.70;2.50;;;;;;;10.26;67.71;98538.60;68309;1282;1015564;-62
2023/04/02 11:01:44;;;;;;;8.30;2.50;;;;;;;10.23;68.03;98531.67;68307;1282;1015270;-62
2023/04/02 11:04:47;;;;;;;6.60;2.30;;;;;;;10.15;67.82;98536.54;68291;1282;1016611;-62
2023/04/02 11:07:49;;;;;;;;;;;;;;;10.24;68.10;98533.68;68308;1282;1015603;-62
2023/04/02 11:10:52;;;;;;;6.20;2.10;;;;;;;10.24;67.65;98541.70;68301;1282;1016020;-62
2023/04/02 11:13:54;;;;;;;5.10;2.30;;;;;;;10.38;67.48;98546.40;68308;1282;1015797;-63
2023/04/02 11:16:57;;;;;;;6.00;2.30;;;;;;;10.36;67.61;98551.09;68307;1282;1015514;-62
2023/04/02 11:20:00;;;;;;;5.10;2.20;;;;;;;10.44;67.59;98556.02;68320;1282;1015402;-62
2023/04/02 11:23:02;;;;;;;6.30;2.60;;;;;;;10.32;66.94;98563.75;68331;1282;1015639;-62
2023/04/02 11:26:04;;;;;;;8.20;2.90;;;;;;;10.27;67.50;98561.10;68306;1282;1016027;-62
2023/04/02 11:29:07;;;;;;;8.30;2.60;;;;;;;10.23;67.18;98567.95;68290;1282;1015645;-62
2023/04/02 11:32:09;;;;;;;6.60;2.70;;;;;;;10.36;67.53;98571.76;68300;1282;1015848;-62
2023/04/02 11:35:12;;;;;;;8.10;2.70;;;;;;;10.46;66.96;98576.19;68306;1282;1015495;-62
2023/04/02 11:38:14;;;;;;;;;;;;;;;10.45;66.87;98577.98;68310;1282;1015753;-62
2023/04/02 11:41:17;;;;;;;7.80;2.90;;;;;;;10.53;67.18;98575.36;68295;1282;1015603;-62
2023/04/02 11:44:19;;;;;;;6.90;2.70;;;;;;;10.67;67.25;98581.42;68296;1282;1015781;-62
2023/04/02 11:47:22;;;;;;;7.80;3.00;;;;;;;10.68;66.83;98585.11;68297;1282;1015802;-63
2023/04/02 11:50:25;;;;;;;7.10;2.60;;;;;;;10.70;66.79;98586.14;68318;1282;1015695;-61
2023/04/02 11:53:27;;;;;;;7.10;2.80;;;;;;;10.65;66.50;98598.87;68312;1282;1016526;-62
2023/04/02 11:56:30;;;;;;;7.40;2.80;;;;;;;10.60;66.88;98594.65;68304;1282;1015438;-62
2023/04/02 11:59:32;;;;;;;8.40;3.10;;;;;;;10.63;68.09;98595.75;68315;1282;1015687;-62
2023/04/02 12:02:34;;;;;;;8.00;2.90;;;;;;;10.77;67.42;98601.30;68308;1282;1015312;-62
2023/04/02 12:05:38;;;;;;;9.40;2.90;;;;;;;10.66;66.74;98598.13;68299;1282;1015786;-62
2023/04/02 12:08:40;;;;;;;8.70;2.80;;;;;;;10.71;66.91;98606.05;68306;1282;1016134;-62
2023/04/02 12:11:42;;;;;;;9.00;2.60;;;;;;;10.45;67.77;98608.43;68301;1282;1015373;-62
2023/04/02 12:14:45;;;;;;;6.90;2.70;;;;;;;10.50;68.17;98607.58;68317;1282;1015811;-62
2023/04/02 12:17:48;;;;;;;8.70;2.70;;;;;;;10.51;68.10;98612.92;68302;1282;1015333;-62
2023/04/02 12:20:51;;;;;;;;;;;;;;;10.61;68.49;98612.27;68317;1282;1015339;-62
2023/04/02 12:23:53;;;;;;;10.00;3.00;;;;;;;10.64;68.05;98614.71;68311;1282;1016087;-62
2023/04/02 12:26:56;;;;;;;9.40;3.00;;;;;;;10.68;68.76;98611.52;68296;1282;1015477;-62
2023/04/02 12:29:58;;;;;;;;;;;;;;;10.57;68.33;98619.55;68302;1282;1015396;-62
2023/04/02 12:33:02;;;;;;;8.10;2.80;;;;;;;10.60;67.89;98621.80;68285;1282;1015810;-62
2023/04/02 12:36:05;;;;;;;14.10;3.60;;;;;;;10.66;67.92;98620.35;68300;1282;1015266;-62
2023/04/02 12:39:08;;;;;;;13.10;4.00;;;;;;;10.49;67.99;98631.20;68312;1282;1015578;-61
2023/04/02 12:42:11;;;;;;;13.70;4.20;;;;;;;10.24;68.35;98638.35;68307;1282;1015498;-62
2023/04/02 12:45:14;;;;;;;16.00;4.60;;;;;;;10.17;68.84;98638.27;68309;1282;1016001;-62
2023/04/02 12:48:16;;;;;;;15.20;4.50;;;;;;;9.87;69.49;98647.27;68308;1282;1015430;-62
2023/04/02 12:51:18;;;;;;;12.70;4.20;;;;;;;9.83;69.97;98646.13;68323;1282;1016610;-62
2023/04/02 12:54:21;;;;;;;13.60;4.70;;;;;;;9.86;69.65;98652.04;68297;1259;1015420;-62
2023/04/02 12:57:23;;;;;;;14.30;4.90;;;;;;;9.95;69.37;98649.23;68307;1282;1016197;-62
2023/04/02 13:00:26;;;;;;;17.00;4.80;;;;;;;9.84;69.29;98655.15;68309;1282;1014275;-62
2023/04/02 13:03:28;;;;;;;11.70;4.00;;;;;;;9.78;69.50;98666.61;68291;1282;1016024;-62
2023/04/02 13:06:31;;;;;;;15.30;4.50;;;;;;;9.81;69.07;98668.55;68302;1282;1014603;-62
2023/04/02 13:09:33;;;;;;;;;;;;;;;9.83;69.55;98669.84;68299;1282;1014986;-62
2023/04/02 13:12:36;;;;;;;14.00;4.20;;;;;;;9.77;69.75;98671.09;68321;1282;1015180;-62
2023/04/02 13:15:38;;;;;;;15.30;4.40;;;;;;;9.84;69.90;98675.22;68314;1282;1015381;-62
2023/04/02 13:18:40;;;;;;;12.90;4.10;;;;;;;9.87;69.68;98680.80;68311;1282;1015384;-62
2023/04/02 13:21:43;;;;;;;13.30;4.00;;;;;;;9.75;69.51;98695.66;65771;1282;6350930;-62
2023/04/02 13:24:46;;;;;;;12.20;3.80;;;;;;;9.68;69.39;98693.42;68305;1282;1015982;-62
2023/04/02 13:27:48;;;;;;;13.20;4.10;;;;;;;9.62;69.17;98700.11;68318;1282;1016127;-62
2023/04/02 13:30:52;;;;;;;14.60;4.00;;;;;;;9.57;69.14;98698.43;68303;1282;1016094;-62
2023/04/02 13:33:54;;;;;;;11.70;3.70;;;;;;;9.51;69.35;98701.05;68306;1282;1015586;-62
2023/04/02 13:36:57;;;;;;;12.40;3.40;;;;;;;9.62;69.48;98705.85;68307;1282;1015725;-62
2023/04/02 13:39:59;;;;;;;11.40;3.50;;;;;;;9.68;69.63;98714.02;68303;1282;1015840;-62
2023/04/02 13:43:01;;;;;;;12.20;3.60;;;;;;;9.69;70.11;98713.64;68305;1282;1015393;-62
2023/04/02 13:46:04;;;;;;;10.50;3.30;;;;;;;9.67;69.48;98717.23;68300;1282;1015424;-62
2023/04/02 13:49:06;;;;;;;12.60;3.60;;;;;;;9.61;68.57;98720.04;68321;1282;1015462;-62
2023/04/02 13:52:08;;;;;;;14.30;3.70;;;;;;;9.58;69.28;98720.03;68314;1282;1016127;-62
2023/04/02 13:55:11;;;;;;;12.80;3.70;;;;;;;9.84;69.11;98714.66;68302;1282;1015744;-62